Aeroporto :
LOGIN :

Iscrizione | Disclaimer

   EN    FR    IT 

 










Sommario :    VFR   VFR Marginale   IFR   IFR Intensivo   IFR Molto Intensivo
Visibilità : 
Base nubi : 
>= 8 km
>= 3000ft
5 / 8 km
1000 / 3000 ft
1500m / 5 km
500 / 1000 ft
800 / 1500m
200 / 500 ft
< 800m
< 200 ft
Simboli :   Temporali  Nebbia  Neve Forte  Precipitazioni Forti  Vento > 20 kt
SIGMETs :   Varie  Temporali  Ghiacco  Turbolenza  Onda orograficha  Ceneri Vulcaniche






- Altitudine del aeroporto : 65 ft
- Codice IATA : PIK


EGPK - Glasgow Prestwick

ULTIMO METAR :
  • 031350Z 36005KT 320V060 9999 FEW032 BKN038 15/04 Q1015

METARs OBSOLETI :
  • 031320Z 01005KT 330V070 9999 FEW032 BKN038 15/04 Q1016
  • 031250Z 36004KT 320V050 9999 FEW032 BKN038 14/04 Q1016
  • 031220Z 04004KT 350V090 9999 FEW032 BKN038 14/04 Q1016
  • 031150Z 03007KT 350V060 9999 SCT030 BKN036 14/04 Q1016
  • 031120Z 05007KT 010V080 9999 SCT030 BKN036 14/04 Q1017

TAF TAF EGPK
Valido dal 03 a 12 ore il 04 a 12 ore UTC


031058Z 0312/0412 05010KT 9999 SCT020 BKN035
BECMG 0319/0322 VRB04KT



MetMap, La meteo Aeronautica in un colpo d'occhio ! - Copyright ORBIFLY Dicembre 2007 - Disclaimer

ORBIFLY MET'MAP TEAM :

Programmazione e sviluppo : Alexandra Zaïnal
Concezione : Baudouin d'Aumeries
Aiuto per la programmazione : Marc-Olivier Méhu
Supporto tecnico e logistico : Manuel Goepfert
Aiuto per la traduzione : Arnaldo La Scala

Contatto : metmap@orbifly.com




FONTI E CREDITI :

   NOAA